PWSweather.com
Personal Weather Stations
Station Observations

AwhituWaiuku, CA 268400

Lat: -37.058, Lon: -174.6346

Elevation: 250

Station Type: Personal

http://www.weather-display.com/windy/gb/grahamsbeach.htm

High Low Average
Temperature 60.6°F15.9°C 53.2°F11.8°C 56.6°F13.7°C
Dew Point 56.1°F13.4°C 50.6°F10.3°C 52.6°F11.4°C
Winds 28.8 mph 46.3 kmh Calm Calm 16.0 mph WSW25.7 kmh WSW
Wind Gusts 35.7 mph57.5 kmh -- 18.0 mph29.0 kmh
Humidity 93% 80% 86%
Pressure 30.01 in1016.3 mb 29.80 in1009.1 mb -
Precipitation 0.01 in0.3 mm - -
Hour Temp Dew Point Humidity Winds Wind Gusts Pressure Precip Precip Rate Daily Precip Total
12:00 AM 56.0°F13.3°C 53.1°F11.7°C 90% 28.8 mph WSW46.3 kmh WSW 31.1 mph50.1 kmh 29.80 in1009.1 mb - 0.00 in0.0 mm 0.00 in0.0 mm
12:30 AM 56.1°F13.4°C 52.6°F11.4°C 88% 24.2 mph W38.9 kmh W 28.8 mph46.3 kmh 29.80 in1009.1 mb - 0.00 in0.0 mm 0.00 in0.0 mm
01:00 AM 56.6°F13.7°C 52.8°F11.6°C 87% 25.3 mph WSW40.7 kmh WSW 35.7 mph57.5 kmh 29.80 in1009.1 mb - 0.00 in0.0 mm 0.00 in0.0 mm
01:30 AM 56.5°F13.6°C 52.0°F11.1°C 85% 26.5 mph WSW42.6 kmh WSW 31.1 mph50.1 kmh 29.81 in1009.5 mb - 0.00 in0.0 mm 0.00 in0.0 mm
02:00 AM 56.6°F13.7°C 52.5°F11.4°C 86% 27.6 mph WSW44.4 kmh WSW 35.7 mph57.5 kmh 29.81 in1009.5 mb - 0.00 in0.0 mm 0.00 in0.0 mm
02:30 AM 56.4°F13.6°C 52.6°F11.4°C 87% 21.9 mph WSW35.2 kmh WSW 24.2 mph38.9 kmh 29.82 in1009.8 mb - 0.00 in0.0 mm 0.00 in0.0 mm
03:00 AM 56.5°F13.6°C 52.4°F11.3°C 86% 26.5 mph WSW42.6 kmh WSW 31.1 mph50.1 kmh 29.82 in1009.8 mb - 0.00 in0.0 mm 0.00 in0.0 mm
03:30 AM 56.8°F13.8°C 52.6°F11.4°C 86% 25.3 mph WSW40.7 kmh WSW 28.8 mph46.3 kmh 29.83 in1010.2 mb - 0.00 in0.0 mm 0.00 in0.0 mm
04:00 AM 56.7°F13.7°C 52.5°F11.4°C 86% 25.3 mph W40.7 kmh W 27.6 mph44.4 kmh 29.83 in1010.2 mb - 0.00 in0.0 mm 0.00 in0.0 mm
04:30 AM 56.4°F13.6°C 52.2°F11.2°C 86% 26.5 mph WSW42.6 kmh WSW 29.9 mph48.1 kmh 29.83 in1010.2 mb - 0.00 in0.0 mm 0.00 in0.0 mm
05:00 AM 56.2°F13.4°C 52.1°F11.2°C 86% 25.3 mph WSW40.7 kmh WSW 27.6 mph44.4 kmh 29.84 in1010.5 mb - 0.00 in0.0 mm 0.00 in0.0 mm
05:30 AM 56.2°F13.4°C 51.7°F10.9°C 85% 25.3 mph W40.7 kmh W 27.6 mph44.4 kmh 29.85 in1010.8 mb - 0.00 in0.0 mm 0.00 in0.0 mm
06:00 AM 55.9°F13.3°C 52.1°F11.2°C 87% 21.9 mph W35.2 kmh W 26.5 mph42.6 kmh 29.86 in1011.2 mb - 0.00 in0.0 mm 0.00 in0.0 mm
06:30 AM 56.1°F13.4°C 52.9°F11.6°C 89% 17.3 mph W27.8 kmh W 19.6 mph31.5 kmh 29.87 in1011.5 mb - 0.00 in0.0 mm 0.00 in0.0 mm
07:00 AM 55.2°F12.9°C 51.4°F10.8°C 87% 18.4 mph W29.6 kmh W 25.3 mph40.7 kmh 29.89 in1012.2 mb - 0.00 in0.0 mm 0.00 in0.0 mm
07:30 AM 56.0°F13.3°C 52.2°F11.2°C 87% 20.7 mph W33.3 kmh W 24.2 mph38.9 kmh 29.89 in1012.2 mb - 0.00 in0.0 mm 0.00 in0.0 mm
08:00 AM 56.0°F13.3°C 51.9°F11.1°C 86% 17.3 mph WSW27.8 kmh WSW 19.6 mph31.5 kmh 29.91 in1012.9 mb - 0.00 in0.0 mm 0.00 in0.0 mm
08:30 AM 56.4°F13.6°C 52.6°F11.4°C 87% 21.9 mph W35.2 kmh W 28.8 mph46.3 kmh 29.92 in1013.2 mb - 0.00 in0.0 mm 0.00 in0.0 mm
09:00 AM 57.2°F14.0°C 52.7°F11.5°C 85% 18.4 mph WSW29.6 kmh WSW 20.7 mph33.3 kmh 29.92 in1013.2 mb - 0.00 in0.0 mm 0.00 in0.0 mm
09:30 AM 57.5°F14.2°C 53.0°F11.7°C 85% 19.6 mph W31.5 kmh W 24.2 mph38.9 kmh 29.93 in1013.5 mb - 0.00 in0.0 mm 0.00 in0.0 mm
10:00 AM 58.5°F14.7°C 54.0°F12.2°C 85% 17.3 mph WSW27.8 kmh WSW 19.6 mph31.5 kmh 29.94 in1013.9 mb - 0.00 in0.0 mm 0.00 in0.0 mm
10:30 AM 59.5°F15.3°C 54.3°F12.4°C 83% 20.7 mph WSW33.3 kmh WSW 26.5 mph42.6 kmh 29.95 in1014.2 mb - 0.00 in0.0 mm 0.00 in0.0 mm
11:00 AM 59.3°F15.2°C 53.8°F12.1°C 82% 19.6 mph WSW31.5 kmh WSW 21.9 mph35.2 kmh 29.96 in1014.6 mb - 0.00 in0.0 mm 0.00 in0.0 mm
11:30 AM 59.1°F15.1°C 54.3°F12.4°C 84% 18.4 mph WSW29.6 kmh WSW 20.7 mph33.3 kmh 29.96 in1014.6 mb - 0.00 in0.0 mm 0.00 in0.0 mm
12:00 PM 58.5°F14.7°C 53.3°F11.8°C 83% 19.6 mph WSW31.5 kmh WSW 24.2 mph38.9 kmh 29.96 in1014.6 mb - 0.01 in0.3 mm 0.01 in0.3 mm
12:30 PM 58.3°F14.6°C 53.8°F12.1°C 85% 18.4 mph W29.6 kmh W 21.9 mph35.2 kmh 29.96 in1014.6 mb - 0.00 in0.0 mm 0.01 in0.3 mm
01:00 PM 60.0°F15.6°C 56.1°F13.4°C 87% 16.1 mph WSW25.9 kmh WSW 20.7 mph33.3 kmh 29.94 in1013.9 mb - 0.00 in0.0 mm 0.01 in0.3 mm
01:30 PM 60.6°F15.9°C 54.8°F12.7°C 81% 17.3 mph WSW27.8 kmh WSW 20.7 mph33.3 kmh 29.94 in1013.9 mb - 0.00 in0.0 mm 0.01 in0.3 mm
02:00 PM 60.4°F15.8°C 54.5°F12.5°C 81% 18.4 mph WSW29.6 kmh WSW 20.7 mph33.3 kmh 29.95 in1014.2 mb - 0.00 in0.0 mm 0.01 in0.3 mm
02:30 PM 60.5°F15.8°C 54.3°F12.4°C 80% 15.0 mph W24.1 kmh W 17.3 mph27.8 kmh 29.95 in1014.2 mb - 0.00 in0.0 mm 0.01 in0.3 mm
03:00 PM 60.5°F15.8°C 54.6°F12.6°C 81% 12.7 mph W20.4 kmh W 15.0 mph24.1 kmh 29.95 in1014.2 mb - 0.00 in0.0 mm 0.01 in0.3 mm
03:30 PM 58.9°F14.9°C 53.4°F11.9°C 82% 9.2 mph WSW14.8 kmh WSW 11.5 mph18.5 kmh 29.94 in1013.9 mb - 0.00 in0.0 mm 0.01 in0.3 mm
04:00 PM 57.8°F14.3°C 53.0°F11.7°C 84% 15.0 mph WSW24.1 kmh WSW 16.1 mph25.9 kmh 29.95 in1014.2 mb - 0.00 in0.0 mm 0.01 in0.3 mm
04:30 PM 57.1°F13.9°C 52.6°F11.4°C 85% 12.7 mph W20.4 kmh W 17.3 mph27.8 kmh 29.96 in1014.6 mb - 0.00 in0.0 mm 0.01 in0.3 mm
05:00 PM 56.0°F13.3°C 51.9°F11.1°C 86% 11.5 mph WSW18.5 kmh WSW 12.7 mph20.4 kmh 29.96 in1014.6 mb - 0.00 in0.0 mm 0.01 in0.3 mm
05:30 PM 55.2°F12.9°C 52.0°F11.1°C 89% 8.1 mph WSW13.0 kmh WSW 9.2 mph14.8 kmh 29.96 in1014.6 mb - 0.00 in0.0 mm 0.01 in0.3 mm
06:00 PM 54.4°F12.4°C 51.5°F10.8°C 90% 10.4 mph WSW16.7 kmh WSW 11.5 mph18.5 kmh 29.97 in1014.9 mb - 0.00 in0.0 mm 0.01 in0.3 mm
06:30 PM 54.5°F12.5°C 51.3°F10.7°C 89% 5.8 mph W9.3 kmh W 5.8 mph9.3 kmh 29.98 in1015.2 mb - 0.00 in0.0 mm 0.01 in0.3 mm
07:00 PM 55.2°F12.9°C 52.0°F11.1°C 89% Calm Calm -- 29.99 in1015.6 mb - 0.00 in0.0 mm 0.01 in0.3 mm
07:30 PM 55.3°F12.9°C 52.1°F11.2°C 89% Calm Calm -- 29.99 in1015.6 mb - 0.00 in0.0 mm 0.01 in0.3 mm
08:00 PM 54.9°F12.7°C 51.7°F10.9°C 89% Calm Calm -- 29.99 in1015.6 mb - 0.00 in0.0 mm 0.01 in0.3 mm
09:00 PM 54.0°F12.2°C 50.8°F10.4°C 89% Calm Calm -- 29.99 in1015.6 mb - 0.00 in0.0 mm 0.01 in0.3 mm
09:30 PM 53.7°F12.1°C 51.1°F10.6°C 91% Calm Calm -- 30.00 in1015.9 mb - 0.00 in0.0 mm 0.01 in0.3 mm
10:00 PM 53.2°F11.8°C 50.6°F10.3°C 91% Calm Calm -- 30.01 in1016.3 mb - 0.00 in0.0 mm 0.01 in0.3 mm
10:30 PM 53.2°F11.8°C 50.6°F10.3°C 91% Calm Calm -- 30.00 in1015.9 mb - 0.00 in0.0 mm 0.01 in0.3 mm
11:00 PM 53.3°F11.8°C 51.0°F10.6°C 92% Calm Calm -- 30.00 in1015.9 mb - 0.00 in0.0 mm 0.01 in0.3 mm
11:30 PM 53.2°F11.8°C 51.2°F10.7°C 93% Calm Calm -- 30.00 in1015.9 mb - 0.00 in0.0 mm 0.01 in0.3 mm